Time;durP1;ratioP1;P1;durP2;ratioP2;P2;SDS_P1;SDS_P2;PMS_P1;PMS_P2;Temp;Humidity;BMP_temperature;BMP_pressure;BME280_temperature;BME280_humidity;BME280_pressure;Samples;Min_cycle;Max_cycle;Signal;HPM_P1;HPM_P2
2023/06/02 00:02:07;;;;;;;7.45;5.38;;;14.80;99.90;;;;;;2603362;54;20868;31
2023/06/02 00:04:41;;;;;;;11.23;5.93;;;14.80;99.90;;;;;;2603279;54;20059;31
2023/06/02 00:07:20;;;;;;;5.93;4.70;;;14.80;99.90;;;;;;2603658;54;20033;31
2023/06/02 00:09:55;;;;;;;9.93;6.13;;;14.70;99.90;;;;;;2603736;54;20037;31
2023/06/02 00:12:30;;;;;;;8.15;6.30;;;14.60;99.90;;;;;;2603409;54;20030;31
2023/06/02 00:15:05;;;;;;;12.13;6.53;;;14.60;99.90;;;;;;2603178;54;20027;31
2023/06/02 00:17:40;;;;;;;8.67;6.13;;;14.50;99.90;;;;;;2603387;54;20030;31
2023/06/02 00:20:26;;;;;;;12.20;6.47;;;14.40;99.90;;;;;;2603359;54;20042;31
2023/06/02 00:23:00;;;;;;;8.85;5.20;;;14.40;99.90;;;;;;2702241;39;20400;31
2023/06/02 00:25:38;;;;;;;8.50;5.55;;;14.40;99.90;;;;;;2621974;46;20545;31
2023/06/02 00:28:12;;;;;;;8.32;5.80;;;14.30;99.90;;;;;;2603479;54;20766;31
2023/06/02 00:30:48;;;;;;;10.50;5.07;;;14.20;99.90;;;;;;2603420;54;20030;31
2023/06/02 00:33:23;;;;;;;8.35;5.60;;;14.20;99.90;;;;;;2603344;54;20135;31
2023/06/02 00:35:58;;;;;;;8.88;5.95;;;14.10;99.90;;;;;;2603527;54;20035;31
2023/06/02 00:38:32;;;;;;;9.80;6.13;;;14.10;99.90;;;;;;2701793;39;21584;31
2023/06/02 00:41:10;;;;;;;8.55;5.45;;;14.10;99.90;;;;;;2603518;54;20057;31
2023/06/02 00:43:46;;;;;;;8.55;5.60;;;14.00;99.90;;;;;;2603515;54;19935;31
2023/06/02 00:46:20;;;;;;;10.60;5.30;;;13.90;99.90;;;;;;2603357;54;25047;31
2023/06/02 00:48:56;;;;;;;9.30;5.65;;;13.90;99.90;;;;;;2773233;31;20557;31
2023/06/02 00:51:31;;;;;;;9.65;5.63;;;13.80;99.90;;;;;;2621539;46;20026;31
2023/06/02 00:54:08;;;;;;;9.25;5.55;;;13.80;99.90;;;;;;2603555;54;20046;31
2023/06/02 00:56:46;;;;;;;9.23;6.05;;;13.80;99.90;;;;;;2603506;54;20026;31
2023/06/02 00:59:22;;;;;;;10.50;6.57;;;13.70;99.90;;;;;;2701828;39;21637;31
2023/06/02 01:01:57;;;;;;;10.13;6.45;;;13.70;99.90;;;;;;2702010;39;21577;31
2023/06/02 01:04:31;;;;;;;8.85;5.90;;;13.70;99.90;;;;;;2621457;46;20983;31
2023/06/02 01:07:08;;;;;;;10.77;6.90;;;13.60;99.90;;;;;;2701753;39;21588;31
2023/06/02 01:09:43;;;;;;;12.60;5.90;;;13.50;99.90;;;;;;2603293;54;20022;31
2023/06/02 01:12:21;;;;;;;9.13;6.13;;;13.50;99.90;;;;;;2603387;54;21004;31
2023/06/02 01:14:56;;;;;;;6.75;4.90;;;13.50;99.90;;;;;;2603205;54;20026;31
2023/06/02 01:17:35;;;;;;;10.82;5.70;;;13.40;99.90;;;;;;2603463;54;20031;31
2023/06/02 01:20:11;;;;;;;8.15;5.78;;;13.40;99.90;;;;;;2603329;54;21663;31
2023/06/02 01:22:48;;;;;;;7.13;5.35;;;13.30;99.90;;;;;;2603267;54;20054;31
2023/06/02 01:25:27;;;;;;;10.45;5.80;;;13.30;99.90;;;;;;2622049;46;20033;31
2023/06/02 01:28:02;;;;;;;9.45;6.40;;;13.30;99.90;;;;;;2603154;54;20781;31
2023/06/02 01:30:37;;;;;;;7.80;5.72;;;13.20;99.90;;;;;;2603293;54;20563;31
2023/06/02 01:33:17;;;;;;;7.55;5.00;;;13.20;99.90;;;;;;2621406;46;20756;31
2023/06/02 01:35:57;;;;;;;9.60;5.88;;;13.10;99.90;;;;;;2603380;54;20909;31
2023/06/02 01:38:33;;;;;;;10.93;6.30;;;13.10;99.90;;;;;;2602948;54;20026;31
2023/06/02 01:41:12;;;;;;;7.25;5.20;;;13.00;99.90;;;;;;2602925;54;20027;31
2023/06/02 01:43:48;;;;;;;7.22;5.75;;;13.00;99.90;;;;;;2603354;54;20830;31
2023/06/02 01:46:22;;;;;;;10.05;5.28;;;12.90;99.90;;;;;;2603193;54;20840;31
2023/06/02 01:48:58;;;;;;;11.98;7.40;;;12.90;99.90;;;;;;2602993;54;20909;31
2023/06/02 01:51:32;;;;;;;10.07;6.88;;;12.80;99.90;;;;;;2621475;46;20082;31
2023/06/02 01:54:07;;;;;;;8.40;5.70;;;12.80;99.90;;;;;;2603215;54;20026;31
2023/06/02 01:56:46;;;;;;;9.00;5.68;;;12.70;99.90;;;;;;2603207;54;20840;31
2023/06/02 01:59:22;;;;;;;10.48;5.72;;;12.70;99.90;;;;;;2603240;54;20030;31
2023/06/02 02:01:57;;;;;;;9.25;7.13;;;12.70;99.90;;;;;;2603190;54;20033;31
2023/06/02 02:04:33;;;;;;;12.53;7.40;;;12.60;99.90;;;;;;2621749;47;20093;31
2023/06/02 02:07:13;;;;;;;10.43;6.15;;;12.60;99.90;;;;;;2603161;54;20046;31
2023/06/02 02:09:52;;;;;;;9.63;6.60;;;12.60;99.90;;;;;;2603022;54;20026;31
2023/06/02 02:12:31;;;;;;;9.18;6.97;;;12.50;99.90;;;;;;2621527;47;20056;31
2023/06/02 02:15:07;;;;;;;8.07;5.78;;;12.50;99.90;;;;;;2603157;54;20577;31
2023/06/02 02:17:44;;;;;;;10.68;6.55;;;12.50;99.90;;;;;;2603171;54;20026;31
2023/06/02 02:20:20;;;;;;;10.65;7.53;;;12.50;99.90;;;;;;2773811;31;20637;31
2023/06/02 02:22:54;;;;;;;8.67;6.37;;;12.40;99.90;;;;;;2603821;54;20037;31
2023/06/02 02:25:27;;;;;;;10.13;7.80;;;12.40;99.90;;;;;;2621589;46;20882;31
2023/06/02 02:28:07;;;;;;;9.63;7.25;;;12.40;99.90;;;;;;2603801;54;20022;31
2023/06/02 02:30:41;;;;;;;11.55;7.07;;;12.30;99.90;;;;;;2603804;54;20968;31
2023/06/02 02:33:19;;;;;;;7.50;5.70;;;12.30;99.90;;;;;;2603732;54;20992;31
2023/06/02 02:35:55;;;;;;;8.95;6.40;;;12.30;99.90;;;;;;2603645;54;20029;31
2023/06/02 02:38:30;;;;;;;8.05;6.10;;;12.30;99.90;;;;;;2622280;46;20034;31
2023/06/02 02:41:05;;;;;;;10.68;6.82;;;12.30;99.90;;;;;;2622381;46;20855;31
2023/06/02 02:43:43;;;;;;;9.63;6.83;;;12.20;99.90;;;;;;2603850;54;20022;31
2023/06/02 02:46:18;;;;;;;9.67;6.67;;;12.20;99.90;;;;;;2622191;46;20274;31
2023/06/02 02:48:56;;;;;;;10.98;6.95;;;12.20;99.90;;;;;;2621724;46;20265;31
2023/06/02 02:51:31;;;;;;;11.50;5.90;;;12.10;99.90;;;;;;2603759;54;20100;31
2023/06/02 02:54:06;;;;;;;10.18;7.07;;;12.10;99.90;;;;;;2603388;54;20856;31
2023/06/02 02:56:43;;;;;;;9.48;6.38;;;12.10;99.90;;;;;;2702556;39;21086;31
2023/06/02 02:59:22;;;;;;;13.90;8.23;;;12.00;99.90;;;;;;2603940;54;20573;31
2023/06/02 03:01:58;;;;;;;9.55;7.20;;;12.00;99.90;;;;;;2622343;46;20839;31
2023/06/02 03:04:34;;;;;;;16.67;7.70;;;12.00;99.90;;;;;;2603858;54;20132;31
2023/06/02 03:07:15;;;;;;;14.10;7.15;;;12.00;99.90;;;;;;2603655;54;20033;31
2023/06/02 03:09:50;;;;;;;12.63;7.47;;;12.00;99.90;;;;;;2603767;54;20038;31
2023/06/02 03:12:31;;;;;;;12.50;7.75;;;12.00;99.90;;;;;;2603680;54;19976;31
2023/06/02 03:15:13;;;;;;;12.57;7.20;;;12.00;99.90;;;;;;2622246;46;20093;31
2023/06/02 03:17:50;;;;;;;10.45;7.78;;;12.00;99.90;;;;;;2603732;54;20925;31
2023/06/02 03:20:29;;;;;;;14.75;7.88;;;12.00;99.90;;;;;;2603781;54;20864;31
2023/06/02 03:23:09;;;;;;;14.73;8.27;;;12.10;99.90;;;;;;2603013;54;20022;31
2023/06/02 03:25:46;;;;;;;12.75;7.85;;;12.10;99.90;;;;;;2602877;54;20116;31
2023/06/02 03:28:25;;;;;;;13.65;8.27;;;12.10;99.90;;;;;;2603759;54;20052;31
2023/06/02 03:31:05;;;;;;;13.95;7.40;;;12.10;99.90;;;;;;2603660;54;20116;31
2023/06/02 03:33:42;;;;;;;12.07;7.83;;;12.10;99.90;;;;;;2603819;54;20022;31
2023/06/02 03:36:21;;;;;;;10.05;7.15;;;12.20;99.90;;;;;;2603542;54;20925;31
2023/06/02 03:38:58;;;;;;;12.57;7.97;;;12.20;99.90;;;;;;2603683;54;20553;31
2023/06/02 03:41:35;;;;;;;10.98;7.22;;;12.20;99.90;;;;;;2603488;54;20085;31
2023/06/02 03:44:18;;;;;;;13.05;7.20;;;12.30;99.90;;;;;;2603580;54;20767;31
2023/06/02 03:47:04;;;;;;;12.55;7.38;;;12.30;99.90;;;;;;2603776;54;20027;31
2023/06/02 03:49:40;;;;;;;13.05;8.00;;;12.40;99.90;;;;;;2603754;54;20042;31
2023/06/02 03:52:19;;;;;;;16.35;7.10;;;12.40;99.90;;;;;;2621521;46;21707;31
2023/06/02 03:54:55;;;;;;;13.75;7.70;;;12.50;99.90;;;;;;2701021;39;20563;31
2023/06/02 03:57:35;;;;;;;13.80;7.60;;;12.50;99.90;;;;;;2603562;54;20099;31
2023/06/02 04:00:15;;;;;;;11.27;7.68;;;12.70;99.90;;;;;;2603734;54;20037;31
2023/06/02 04:03:01;;;;;;;11.85;7.50;;;12.70;99.90;;;;;;2622030;46;20023;31
2023/06/02 04:05:42;;;;;;;12.90;7.32;;;12.70;99.90;;;;;;2603771;54;20848;31
2023/06/02 04:08:19;;;;;;;12.57;7.72;;;12.80;99.90;;;;;;2603598;54;20916;31
2023/06/02 04:10:56;;;;;;;12.80;7.28;;;12.80;99.90;;;;;;2602634;54;20030;31
2023/06/02 04:13:33;;;;;;;11.57;7.65;;;12.90;99.90;;;;;;2602784;54;20919;31
2023/06/02 04:16:11;;;;;;;14.18;7.30;;;12.90;99.90;;;;;;2622094;46;20577;31
2023/06/02 04:18:51;;;;;;;15.00;7.27;;;13.00;99.90;;;;;;2611760;46;20030;31
2023/06/02 04:21:28;;;;;;;13.15;8.38;;;13.00;99.90;;;;;;2609075;46;20870;31
2023/06/02 04:24:05;;;;;;;14.10;7.90;;;13.10;99.90;;;;;;2701912;39;20501;31
2023/06/02 04:26:41;;;;;;;13.60;8.18;;;13.10;99.90;;;;;;2702140;39;20506;31
2023/06/02 04:29:18;;;;;;;13.77;7.93;;;13.20;99.90;;;;;;2621859;46;20022;31
2023/06/02 04:31:55;;;;;;;12.82;7.53;;;13.20;99.90;;;;;;2603210;54;20028;31
2023/06/02 04:34:40;;;;;;;11.20;7.30;;;13.30;99.90;;;;;;2622092;46;20027;31
2023/06/02 04:37:16;;;;;;;11.80;7.55;;;13.40;99.90;;;;;;2701897;39;20596;31
2023/06/02 04:39:55;;;;;;;;;;;13.40;99.90;;;;;;2603085;54;21000;31
2023/06/02 04:42:32;;;;;;;13.10;8.20;;;13.50;99.90;;;;;;2602394;54;20001;31
2023/06/02 04:45:16;;;;;;;12.80;7.38;;;13.60;99.90;;;;;;2603278;54;20755;31
2023/06/02 04:50:37;;;;;;;10.95;7.18;;;13.90;99.90;;;;;;2621902;46;20890;31
2023/06/02 04:53:14;;;;;;;10.10;7.10;;;14.00;99.90;;;;;;2603272;54;21361;31
2023/06/02 04:55:49;;;;;;;18.75;8.00;;;14.30;99.90;;;;;;2602681;54;22456;31
2023/06/02 04:58:26;;;;;;;11.98;7.38;;;14.70;99.90;;;;;;2603361;54;20026;31
2023/06/02 05:01:01;;;;;;;13.40;7.45;;;15.00;99.90;;;;;;2603289;54;20030;31
2023/06/02 05:03:38;;;;;;;17.05;7.50;;;15.30;99.90;;;;;;2603426;54;20224;31
2023/06/02 05:06:19;;;;;;;13.37;7.20;;;15.60;99.90;;;;;;2603493;54;20030;31
2023/06/02 05:08:54;;;;;;;15.67;7.17;;;16.00;99.90;;;;;;2603427;54;20085;31
2023/06/02 05:11:33;;;;;;;12.75;6.50;;;16.30;99.90;;;;;;2701751;39;20480;31
2023/06/02 05:14:09;;;;;;;11.65;5.90;;;16.60;99.90;;;;;;2701776;39;20506;31
2023/06/02 05:16:46;;;;;;;12.95;5.75;;;16.80;99.90;;;;;;2603323;54;20133;31
2023/06/02 05:19:25;;;;;;;12.05;5.80;;;17.20;99.90;;;;;;2720170;39;21504;31
2023/06/02 05:22:04;;;;;;;12.63;5.63;;;17.50;99.90;;;;;;2621422;46;20850;31
2023/06/02 05:24:41;;;;;;;9.10;5.40;;;17.90;99.90;;;;;;2603418;54;20853;31
2023/06/02 05:27:21;;;;;;;10.93;5.22;;;18.10;99.90;;;;;;2602649;54;20038;31
2023/06/02 05:29:58;;;;;;;12.18;5.03;;;18.40;99.90;;;;;;2701589;39;21492;31
2023/06/02 05:32:34;;;;;;;8.35;4.75;;;18.60;99.90;;;;;;2603146;54;20048;31
2023/06/02 05:35:12;;;;;;;8.93;4.93;;;18.90;99.90;;;;;;2603375;54;20022;31
2023/06/02 05:37:51;;;;;;;11.02;4.32;;;19.00;99.90;;;;;;2602576;54;21728;31
2023/06/02 05:40:26;;;;;;;8.02;3.97;;;19.30;99.90;;;;;;2603076;54;20732;31
2023/06/02 05:43:01;;;;;;;13.13;4.78;;;19.60;99.90;;;;;;2720700;39;21054;31
2023/06/02 05:45:37;;;;;;;11.77;3.42;;;19.80;99.90;;;;;;2621429;46;20034;31
2023/06/02 05:48:13;;;;;;;18.88;4.53;;;20.00;99.90;;;;;;2621185;46;20961;31
2023/06/02 05:50:47;;;;;;;9.55;3.45;;;20.20;99.90;;;;;;2603338;54;20900;31
2023/06/02 05:53:26;;;;;;;9.95;3.25;;;20.30;99.90;;;;;;2603097;54;19954;31
2023/06/02 05:56:00;;;;;;;11.10;3.60;;;20.50;99.90;;;;;;2602988;54;21579;31
2023/06/02 05:58:39;;;;;;;9.30;3.70;;;20.60;99.90;;;;;;2603205;54;20756;31
2023/06/02 06:01:16;;;;;;;11.57;2.95;;;20.80;99.90;;;;;;2603081;54;20907;31
2023/06/02 06:03:51;;;;;;;;;;;20.90;99.90;;;;;;2603222;54;20030;31
2023/06/02 06:06:25;;;;;;;11.93;2.97;;;21.20;99.90;;;;;;2603051;54;20438;31
2023/06/02 06:09:05;;;;;;;19.58;3.28;;;21.10;99.90;;;;;;2621553;47;20057;31
2023/06/02 06:11:41;;;;;;;14.57;3.47;;;20.90;99.90;;;;;;2701548;39;20481;31
2023/06/02 06:14:19;;;;;;;15.30;3.40;;;20.80;99.90;;;;;;2701328;39;20505;31
2023/06/02 06:16:54;;;;;;;11.93;2.95;;;20.70;99.90;;;;;;2603093;54;20480;31
2023/06/02 06:19:29;;;;;;;12.63;2.70;;;20.70;99.90;;;;;;2603062;54;20789;31
2023/06/02 06:22:04;;;;;;;5.70;2.22;;;20.80;99.90;;;;;;2602886;54;20275;31
2023/06/02 06:24:43;;;;;;;8.02;2.60;;;20.70;99.90;;;;;;2602987;54;20031;31
2023/06/02 06:27:19;;;;;;;9.52;2.63;;;20.90;99.90;;;;;;2621293;47;20768;31
2023/06/02 06:29:54;;;;;;;9.82;2.50;;;20.90;99.90;;;;;;2602375;54;20097;31
2023/06/02 06:32:29;;;;;;;7.07;2.60;;;20.90;99.90;;;;;;2603162;54;19935;31
2023/06/02 06:35:05;;;;;;;11.20;3.20;;;20.90;99.90;;;;;;2603051;54;20026;31
2023/06/02 06:37:40;;;;;;;7.35;2.50;;;21.10;99.90;;;;;;2603012;54;20783;31
2023/06/02 06:40:19;;;;;;;8.38;2.92;;;21.00;99.90;;;;;;2602860;54;20022;31
2023/06/02 06:42:55;;;;;;;12.77;2.58;;;20.90;99.90;;;;;;2603003;54;20857;31
2023/06/02 06:45:41;;;;;;;13.30;3.03;;;20.90;99.90;;;;;;2602804;54;20026;31
2023/06/02 06:48:16;;;;;;;9.88;2.72;;;20.90;99.90;;;;;;2602949;54;20904;31
2023/06/02 06:50:52;;;;;;;10.40;2.95;;;21.10;99.90;;;;;;2621301;47;20037;31
2023/06/02 06:53:27;;;;;;;9.98;2.38;;;21.10;99.90;;;;;;2621304;47;20026;31
2023/06/02 06:56:06;;;;;;;10.90;3.25;;;21.10;99.90;;;;;;2602993;54;20042;31
2023/06/02 06:58:41;;;;;;;12.17;3.10;;;21.20;99.90;;;;;;2603077;54;20030;31
2023/06/02 07:01:16;;;;;;;17.65;4.03;;;21.30;99.90;;;;;;2602821;54;20755;31
2023/06/02 07:03:51;;;;;;;8.02;2.40;;;21.50;99.90;;;;;;2602899;54;20860;31
2023/06/02 07:06:26;;;;;;;10.43;2.80;;;21.50;99.90;;;;;;2603805;54;20837;31
2023/06/02 07:09:01;;;;;;;;;;;21.40;99.90;;;;;;2604021;54;20030;31
2023/06/02 07:11:39;;;;;;;7.43;2.58;;;21.60;99.90;;;;;;2604024;54;19946;31
2023/06/02 07:14:14;;;;;;;9.48;2.53;;;22.00;99.90;;;;;;2603830;54;20960;31
2023/06/02 07:16:54;;;;;;;6.65;2.65;;;22.20;99.90;;;;;;2622324;46;20149;31
2023/06/02 07:19:29;;;;;;;9.67;2.80;;;22.40;99.90;;;;;;2603612;54;20026;31
2023/06/02 07:22:04;;;;;;;6.40;2.53;;;22.30;99.90;;;;;;2603576;54;20022;31
2023/06/02 07:24:39;;;;;;;7.37;2.83;;;22.20;99.90;;;;;;2603805;54;20027;31
2023/06/02 07:27:16;;;;;;;10.80;2.50;;;22.40;99.90;;;;;;2603555;54;20053;31
2023/06/02 07:29:51;;;;;;;8.25;2.65;;;22.70;99.90;;;;;;2603540;54;20882;31
2023/06/02 07:32:26;;;;;;;7.80;2.97;;;22.80;99.90;;;;;;2621972;46;20603;31
2023/06/02 07:35:02;;;;;;;7.55;3.42;;;22.50;99.90;;;;;;2622523;46;20900;31
2023/06/02 07:37:36;;;;;;;;;;;22.10;99.90;;;;;;2622243;46;20809;31
2023/06/02 07:40:12;;;;;;;7.95;3.35;;;21.80;99.90;;;;;;2603568;54;19934;31
2023/06/02 07:42:51;;;;;;;10.95;3.00;;;22.00;99.90;;;;;;2702039;39;21342;31
2023/06/02 07:45:26;;;;;;;8.57;3.35;;;22.20;99.90;;;;;;2603685;54;20082;31
2023/06/02 07:48:02;;;;;;;11.20;2.85;;;22.50;99.90;;;;;;2603600;54;20848;31
2023/06/02 07:50:37;;;;;;;12.38;2.63;;;22.50;99.90;;;;;;2603661;54;20046;31
2023/06/02 07:53:12;;;;;;;7.65;2.80;;;22.50;99.90;;;;;;2603562;54;20585;31
2023/06/02 07:55:47;;;;;;;9.30;2.95;;;22.60;99.90;;;;;;2701935;39;20758;31
2023/06/02 07:58:26;;;;;;;8.25;2.45;;;22.10;99.90;;;;;;2603511;54;20026;31
2023/06/02 08:01:02;;;;;;;8.63;2.47;;;22.10;99.90;;;;;;2603707;54;20057;31
2023/06/02 08:03:35;;;;;;;;;;;22.10;99.90;;;;;;2720532;39;20401;31
2023/06/02 08:06:11;;;;;;;9.75;2.45;;;22.40;99.90;;;;;;2621975;46;20044;31
2023/06/02 08:08:46;;;;;;;7.00;3.05;;;22.50;99.90;;;;;;2622075;46;20569;31
2023/06/02 08:11:22;;;;;;;8.40;2.75;;;22.70;99.90;;;;;;2701996;39;21748;31
2023/06/02 08:14:03;;;;;;;7.60;2.63;;;22.70;99.90;;;;;;2603550;54;20246;31
2023/06/02 08:16:41;;;;;;;8.88;2.50;;;22.70;99.90;;;;;;2603233;54;20119;31
2023/06/02 08:19:35;;;;;;;7.88;3.22;;;22.80;99.90;;;;;;2603642;54;20030;31
2023/06/02 08:22:12;;;;;;;9.00;2.40;;;22.80;99.90;;;;;;2603368;54;20906;31
2023/06/02 08:24:47;;;;;;;12.27;3.45;;;22.80;99.90;;;;;;2603612;54;20782;31
2023/06/02 08:27:22;;;;;;;10.07;2.60;;;22.70;99.90;;;;;;2603213;54;20034;31
2023/06/02 08:29:59;;;;;;;9.50;2.10;;;22.30;99.90;;;;;;2603559;54;20961;31
2023/06/02 08:32:35;;;;;;;7.03;2.25;;;22.50;99.90;;;;;;2621849;46;21576;31
2023/06/02 08:35:10;;;;;;;;;;;22.50;99.90;;;;;;2603801;54;20030;31
2023/06/02 08:37:45;;;;;;;12.20;3.20;;;22.30;99.90;;;;;;2621541;46;19944;31
2023/06/02 08:40:21;;;;;;;9.90;2.70;;;22.30;99.90;;;;;;2603402;54;20109;31
2023/06/02 08:42:57;;;;;;;7.95;3.00;;;22.60;99.90;;;;;;2603351;54;20570;31
2023/06/02 08:45:35;;;;;;;6.85;2.80;;;22.90;99.90;;;;;;2603330;54;20030;31
2023/06/02 08:48:16;;;;;;;7.72;3.67;;;22.80;99.90;;;;;;2621784;46;20027;31
2023/06/02 08:50:58;;;;;;;6.73;2.97;;;22.60;99.90;;;;;;2603347;54;20038;31
2023/06/02 08:53:33;;;;;;;9.82;3.15;;;22.40;99.90;;;;;;2702174;39;21199;31
2023/06/02 08:56:11;;;;;;;9.55;3.47;;;22.60;99.90;;;;;;2603451;54;20026;31
2023/06/02 08:58:50;;;;;;;9.32;3.75;;;23.00;99.90;;;;;;2603452;54;20108;31
2023/06/02 09:01:28;;;;;;;13.00;3.70;;;22.70;99.90;;;;;;2603293;54;20799;31
2023/06/02 09:04:03;;;;;;;15.27;4.22;;;22.50;99.90;;;;;;2603122;54;20566;31
2023/06/02 09:06:43;;;;;;;6.80;3.67;;;22.40;99.90;;;;;;2603511;54;20030;31
2023/06/02 09:09:20;;;;;;;7.70;3.13;;;22.30;99.90;;;;;;2603398;54;20230;31
2023/06/02 09:12:00;;;;;;;13.60;3.78;;;22.40;99.90;;;;;;2603064;54;20772;31
2023/06/02 09:14:35;;;;;;;7.05;3.20;;;22.30;99.90;;;;;;2603433;54;20033;31
2023/06/02 09:17:30;;;;;;;7.63;3.47;;;22.40;99.90;;;;;;2603340;54;20851;31
2023/06/02 09:20:10;;;;;;;5.13;2.80;;;22.70;99.90;;;;;;2603512;54;20026;31
2023/06/02 09:22:57;;;;;;;6.90;2.75;;;22.60;99.90;;;;;;2603304;54;20956;31
2023/06/02 09:25:34;;;;;;;7.13;3.00;;;22.50;99.90;;;;;;2621743;46;20038;31
2023/06/02 09:28:10;;;;;;;15.32;4.05;;;22.30;99.90;;;;;;2621851;46;20570;31
2023/06/02 09:30:45;;;;;;;9.35;2.95;;;22.00;99.90;;;;;;2603518;54;20034;31
2023/06/02 09:33:22;;;;;;;6.70;2.83;;;22.20;99.90;;;;;;2603139;54;20558;31
2023/06/02 09:35:58;;;;;;;11.75;3.13;;;22.60;99.90;;;;;;2603136;54;20026;31
2023/06/02 09:38:44;;;;;;;9.07;3.55;;;22.90;99.90;;;;;;2621679;46;20038;31
2023/06/02 09:41:20;;;;;;;7.25;3.08;;;23.10;99.90;;;;;;2701845;39;20547;31
2023/06/02 09:43:55;;;;;;;5.85;2.35;;;23.00;97.20;;;;;;2603429;54;20026;31
2023/06/02 09:46:31;;;;;;;10.17;2.80;;;23.10;99.00;;;;;;2603310;54;20027;31
2023/06/02 09:49:15;;;;;;;7.68;3.42;;;23.30;98.20;;;;;;2702041;39;21050;31
2023/06/02 09:51:50;;;;;;;6.32;2.58;;;23.40;98.10;;;;;;2603399;54;20030;31
2023/06/02 09:54:25;;;;;;;12.93;3.73;;;23.20;97.80;;;;;;2603203;54;20026;31
2023/06/02 09:57:00;;;;;;;9.15;3.38;;;22.70;98.50;;;;;;2603049;54;20238;31
2023/06/02 09:59:35;;;;;;;8.15;2.60;;;22.40;99.50;;;;;;2621306;46;20042;31
2023/06/02 10:02:10;;;;;;;8.85;3.35;;;21.90;98.60;;;;;;2603138;54;20049;31
2023/06/02 10:04:48;;;;;;;9.30;3.05;;;21.50;99.50;;;;;;2701966;39;21100;31
2023/06/02 10:07:35;;;;;;;7.95;2.53;;;21.20;99.90;;;;;;2603173;54;20038;31
2023/06/02 10:10:23;;;;;;;11.48;2.92;;;21.00;99.90;;;;;;2603024;54;20639;31
2023/06/02 10:13:07;;;;;;;6.28;2.35;;;20.80;99.90;;;;;;2603042;54;21749;31
2023/06/02 10:15:49;;;;;;;8.77;2.70;;;20.70;99.90;;;;;;2720255;39;20469;31
2023/06/02 10:18:57;;;;;;;6.50;2.40;;;20.70;99.90;;;;;;2621759;47;20026;31
2023/06/02 10:21:40;;;;;;;12.73;3.05;;;20.50;99.90;;;;;;2603169;54;20888;31
2023/06/02 10:24:19;;;;;;;11.05;1.98;;;20.30;99.90;;;;;;2701484;39;20400;31
2023/06/02 10:27:02;;;;;;;9.65;2.55;;;20.20;99.90;;;;;;2602992;54;20774;31
2023/06/02 10:29:38;;;;;;;9.20;2.42;;;20.00;99.90;;;;;;2621415;47;20033;31
2023/06/02 10:32:24;;;;;;;7.80;2.40;;;19.80;99.90;;;;;;2602878;54;20031;31
2023/06/02 10:35:00;;;;;;;11.20;2.67;;;19.60;99.90;;;;;;2621526;47;20797;31
2023/06/02 10:37:39;;;;;;;9.35;3.17;;;19.50;99.90;;;;;;2603107;54;20026;31
2023/06/02 10:40:16;;;;;;;8.60;2.80;;;19.50;99.90;;;;;;2720595;39;21501;31
2023/06/02 10:43:13;;;;;;;7.22;3.00;;;19.60;99.90;;;;;;2773719;31;21629;31
2023/06/02 10:45:55;;;;;;;8.63;2.97;;;19.60;99.90;;;;;;2603914;54;20045;31
2023/06/02 10:48:40;;;;;;;10.60;2.65;;;19.70;99.90;;;;;;2622162;46;20251;31
2023/06/02 10:51:13;;;;;;;7.20;3.13;;;19.70;99.90;;;;;;2603844;54;20022;31
2023/06/02 10:54:18;;;;;;;5.47;2.47;;;19.70;99.90;;;;;;2720655;39;21472;31
2023/06/02 10:56:56;;;;;;;6.20;2.55;;;19.80;99.90;;;;;;2702186;39;20462;31
2023/06/02 10:59:36;;;;;;;6.25;2.75;;;20.00;99.90;;;;;;2603985;54;20632;31
2023/06/02 11:02:13;;;;;;;9.82;2.58;;;20.20;99.90;;;;;;2603914;54;20143;31
2023/06/02 11:04:50;;;;;;;9.15;2.90;;;20.40;99.90;;;;;;2622473;46;20034;31
2023/06/02 11:07:26;;;;;;;6.28;2.10;;;20.80;99.90;;;;;;2622214;46;20042;31
2023/06/02 11:10:05;;;;;;;;;;;21.00;99.90;;;;;;2603818;54;20878;31
2023/06/02 11:13:07;;;;;;;8.60;2.55;;;21.10;99.90;;;;;;2622294;46;21346;31
2023/06/02 11:15:42;;;;;;;4.38;2.72;;;21.10;99.90;;;;;;2621723;46;20022;31
2023/06/02 11:18:45;;;;;;;8.15;2.72;;;20.90;99.90;;;;;;2603693;54;20032;31
2023/06/02 11:21:19;;;;;;;6.80;2.55;;;20.80;99.90;;;;;;2603551;54;20024;31
2023/06/02 11:23:58;;;;;;;6.95;3.35;;;20.80;99.90;;;;;;2603946;54;20644;31
2023/06/02 11:26:36;;;;;;;7.93;3.25;;;20.80;99.90;;;;;;2702206;39;20628;31
2023/06/02 11:29:19;;;;;;;12.40;3.17;;;21.00;99.90;;;;;;2603829;54;19935;31
2023/06/02 11:31:55;;;;;;;8.27;3.27;;;21.00;99.90;;;;;;2603695;54;20049;31
2023/06/02 11:34:30;;;;;;;12.05;3.17;;;21.00;99.90;;;;;;2603671;54;21228;31
2023/06/02 11:37:16;;;;;;;6.40;2.77;;;20.90;99.90;;;;;;2603632;54;21324;31
2023/06/02 11:39:55;;;;;;;8.20;3.10;;;20.90;99.90;;;;;;2603966;54;20859;31
2023/06/02 11:42:46;;;;;;;12.95;3.97;;;21.00;99.90;;;;;;2603684;54;20097;31
2023/06/02 11:45:22;;;;;;;6.90;3.20;;;20.90;99.90;;;;;;2622217;46;20030;31
2023/06/02 11:48:01;;;;;;;6.30;3.00;;;20.70;99.90;;;;;;2603601;54;20588;31
2023/06/02 11:50:36;;;;;;;8.40;3.30;;;20.50;99.90;;;;;;2603852;54;20022;31
2023/06/02 11:53:17;;;;;;;8.23;3.67;;;20.40;99.90;;;;;;2621987;46;20038;31
2023/06/02 11:55:52;;;;;;;9.30;3.63;;;20.40;99.90;;;;;;2603445;54;20031;31
2023/06/02 11:58:30;;;;;;;6.93;3.35;;;20.30;99.90;;;;;;2603509;54;20037;31
2023/06/02 12:01:09;;;;;;;10.38;3.20;;;20.10;99.90;;;;;;2701943;39;20529;31
2023/06/02 12:04:00;;;;;;;7.55;2.60;;;20.00;99.90;;;;;;2603503;54;20038;31
2023/06/02 12:06:36;;;;;;;10.60;4.15;;;20.00;99.90;;;;;;2603481;54;20770;31
2023/06/02 12:09:14;;;;;;;7.38;3.55;;;19.80;99.90;;;;;;2603463;54;20851;31
2023/06/02 12:11:55;;;;;;;11.65;4.35;;;19.80;99.90;;;;;;2603266;54;20129;31
2023/06/02 12:14:39;;;;;;;9.20;3.55;;;19.80;99.90;;;;;;2603762;54;20105;31
2023/06/02 12:17:14;;;;;;;5.77;3.10;;;19.80;99.90;;;;;;2603369;54;20882;31
2023/06/02 12:19:59;;;;;;;6.65;3.45;;;19.80;99.90;;;;;;2603386;54;20058;31
2023/06/02 12:22:35;;;;;;;5.00;2.53;;;19.80;99.90;;;;;;2603540;54;20229;31
2023/06/02 12:25:17;;;;;;;8.35;2.95;;;19.80;99.90;;;;;;2791690;31;21710;31
2023/06/02 12:27:52;;;;;;;3.35;2.60;;;19.80;99.90;;;;;;2622127;46;20023;31
2023/06/02 12:30:31;;;;;;;3.05;1.95;;;19.80;99.90;;;;;;2603392;54;20100;31
2023/06/02 12:33:32;;;;;;;5.35;2.55;;;19.70;99.90;;;;;;2603356;54;20030;31
2023/06/02 12:36:07;;;;;;;4.43;2.33;;;19.80;99.90;;;;;;2603288;54;20136;31
2023/06/02 12:38:43;;;;;;;3.30;2.00;;;19.70;99.90;;;;;;2622028;46;20764;31
2023/06/02 12:41:21;;;;;;;4.10;2.15;;;19.60;99.90;;;;;;2603350;54;20034;31
2023/06/02 12:43:55;;;;;;;4.80;2.20;;;19.60;99.90;;;;;;2720405;39;20532;31
2023/06/02 12:46:32;;;;;;;7.17;2.90;;;19.60;99.90;;;;;;2622014;46;20030;31
2023/06/02 12:49:08;;;;;;;5.47;2.53;;;19.70;99.90;;;;;;2603358;54;20026;31
2023/06/02 12:51:44;;;;;;;6.28;2.20;;;19.60;99.90;;;;;;2603331;54;20004;31
2023/06/02 12:54:20;;;;;;;5.35;2.83;;;19.50;99.90;;;;;;2615968;46;20041;31
2023/06/02 12:56:55;;;;;;;4.95;3.42;;;19.50;99.90;;;;;;2603687;54;20027;31
2023/06/02 12:59:30;;;;;;;6.27;3.73;;;19.60;99.90;;;;;;2603300;54;20026;31
2023/06/02 13:02:08;;;;;;;4.07;3.10;;;19.60;99.90;;;;;;2603308;54;19942;31
2023/06/02 13:04:43;;;;;;;7.25;2.85;;;19.60;99.90;;;;;;2603297;54;20026;31
2023/06/02 13:07:20;;;;;;;4.40;2.78;;;19.50;99.90;;;;;;2701803;39;21545;31
2023/06/02 13:09:55;;;;;;;5.97;2.60;;;19.70;99.90;;;;;;2603470;54;20026;31
2023/06/02 13:12:30;;;;;;;5.18;2.42;;;19.70;99.90;;;;;;2603407;54;20868;31
2023/06/02 13:15:08;;;;;;;4.15;3.10;;;19.70;99.90;;;;;;2603544;54;20031;31
2023/06/02 13:17:48;;;;;;;3.92;2.65;;;19.60;99.90;;;;;;2603494;54;20022;31
2023/06/02 13:20:23;;;;;;;4.57;3.40;;;19.60;99.90;;;;;;2772994;31;21761;31
2023/06/02 13:22:58;;;;;;;5.05;3.38;;;19.60;99.90;;;;;;2603627;54;20108;31
2023/06/02 13:25:33;;;;;;;5.93;3.40;;;19.60;99.90;;;;;;2621697;46;20101;31
2023/06/02 13:28:09;;;;;;;9.00;3.38;;;19.50;99.90;;;;;;2603494;54;19935;31
2023/06/02 13:30:44;;;;;;;8.57;2.55;;;19.50;99.90;;;;;;2622034;46;20026;31
2023/06/02 13:33:21;;;;;;;5.00;2.95;;;19.50;99.90;;;;;;2603281;54;20026;31
2023/06/02 13:35:59;;;;;;;5.78;2.67;;;19.50;99.90;;;;;;2603508;54;20026;31
2023/06/02 13:38:35;;;;;;;6.00;2.85;;;19.40;99.90;;;;;;2603427;54;20026;31
2023/06/02 13:41:10;;;;;;;4.68;2.75;;;19.40;99.90;;;;;;2603089;54;20795;31
2023/06/02 13:43:48;;;;;;;5.77;2.30;;;19.50;99.90;;;;;;2621812;46;20031;31
2023/06/02 13:46:23;;;;;;;6.15;2.60;;;19.40;99.90;;;;;;2621523;46;20671;31
2023/06/02 13:49:01;;;;;;;4.30;2.30;;;19.40;99.90;;;;;;2603122;54;20093;31
2023/06/02 13:51:36;;;;;;;6.07;2.17;;;19.30;99.90;;;;;;2603214;54;20894;31
2023/06/02 13:54:11;;;;;;;4.00;2.10;;;19.40;99.90;;;;;;2603195;54;20869;31